Terminal Aerodrome Forecast
Issued by NWS Twin Cities, MN

Home | Current Version | Previous Version | Graphics & Text | Print | Product List | Glossary On
Versions: 1 2 3 4 5 6 7 8 9 10 11 12 13 14
545
FTUS43 KMPX 192340
TAFEAU
TAF
KEAU 192340Z 2000/2024 07009KT P6SM OVC080
     FM201600 07009KT 6SM -RA BR SCT020 OVC040
     FM201900 08012G19KT 4SM RA BR SCT010 OVC020
     FM202200 09012G19KT 3SM RA BR OVC007=

USA.gov is the U.S. government's official web portal to all federal, state and local government web resources and services.